| time (UTC) | temp F | wind direction | speed MPH | gust MPH | rain 1hr in | rain 24hr in | rain mn in | humidity % | barometer mb |
| 20260510214138 | 53 | 216 | 3.0 | 6.0 | 0.00 | 0.00 | 0.00 | 70 | 927.0 |
| 20260510213948 | 53 | 216 | 3.0 | 6.0 | 0.00 | 0.00 | 0.00 | 70 | 927.0 |
| 20260510204238 | 55 | 241 | 1.0 | 6.0 | 0.00 | 0.00 | 0.00 | 67 | 926.3 |
| 20260510203840 | 55 | 241 | 1.0 | 6.0 | 0.00 | 0.00 | 0.00 | 67 | 926.3 |
| 20260510195559 | 57 | 267 | 5.0 | 15.0 | 0.00 | 0.00 | 0.00 | 59 | 925.9 |
| 20260510195322 | 57 | 267 | 5.0 | 15.0 | 0.00 | 0.00 | 0.00 | 59 | 925.9 |
| 20260510185315 | 59 | 274 | 5.0 | 15.0 | 0.00 | 0.00 | 0.00 | 53 | 925.2 |
| 20260510184830 | 59 | 274 | 5.0 | 15.0 | 0.00 | 0.00 | 0.00 | 53 | 925.2 |
| 20260510174449 | 60 | 262 | 6.0 | 17.0 | 0.00 | 0.00 | 0.00 | 50 | 925.3 |
| 20260510174311 | 60 | 262 | 6.0 | 17.0 | 0.00 | 0.00 | 0.00 | 50 | 925.3 |
| 20260510164635 | 60 | 286 | 8.0 | 19.0 | 0.00 | 0.00 | 0.00 | 55 | 925.2 |
| 20260510164320 | 60 | 286 | 8.0 | 19.0 | 0.00 | 0.00 | 0.00 | 55 | 925.2 |
| 20260510154559 | 59 | 204 | 7.0 | 23.0 | 0.00 | 0.00 | 0.00 | 61 | 925.3 |
| 20260510154319 | 59 | 204 | 7.0 | 23.0 | 0.00 | 0.00 | 0.00 | 61 | 925.3 |
| 20260510143457 | 58 | 222 | 6.0 | 19.0 | 0.00 | 0.00 | 0.00 | 58 | 925.3 |
| 20260510141912 | 58 | 210 | 6.0 | 15.0 | 0.00 | 0.00 | 0.00 | 62 | 925.7 |
| 20260510130502 | 54 | 219 | 6.0 | 13.0 | 0.00 | 0.00 | 0.00 | 73 | 926.4 |
| 20260510125706 | 54 | 219 | 6.0 | 13.0 | 0.00 | 0.00 | 0.00 | 73 | 926.4 |
| 20260510115112 | 50 | 197 | 4.0 | 14.0 | 0.00 | 0.00 | 0.00 | 81 | 926.5 |
| 20260510105708 | 47 | 262 | 7.0 | 18.0 | 0.00 | 0.00 | 0.00 | 90 | 927.1 |
| 20260510100603 | 51 | 260 | 4.0 | 9.0 | 0.00 | 0.00 | 0.00 | 88 | 926.1 |
| 20260510095141 | 51 | 260 | 4.0 | 9.0 | 0.00 | 0.00 | 0.00 | 88 | 926.1 |
| 20260510080302 | 51 | 178 | 3.0 | 8.0 | 0.00 | 0.00 | 0.00 | 82 | 925.6 |
| 20260510080137 | 51 | 178 | 3.0 | 8.0 | 0.00 | 0.00 | 0.00 | 82 | 925.6 |
| 20260510055625 | 48 | 158 | 2.0 | 5.0 | 0.00 | 0.00 | 0.00 | 94 | 925.5 |
| 20260510054905 | 48 | 158 | 2.0 | 5.0 | 0.00 | 0.00 | 0.00 | 94 | 925.5 |
| 20260510022705 | 49 | 153 | 2.0 | 6.0 | 0.00 | 0.00 | 0.00 | 93 | 926.3 |
| 20260510020310 | 49 | 153 | 2.0 | 6.0 | 0.00 | 0.00 | 0.00 | 93 | 926.3 |
| 20260509234121 | 49 | 246 | 4.0 | 15.0 | 0.00 | 0.00 | 0.00 | 88 | 926.4 |
| 20260509233807 | 49 | 246 | 4.0 | 15.0 | 0.00 | 0.00 | 0.00 | 88 | 926.4 |
| 20260509223705 | 49 | 290 | 3.0 | 20.0 | 0.00 | 0.00 | 0.00 | 91 | 925.6 |
| 20260509223444 | 49 | 290 | 3.0 | 20.0 | 0.00 | 0.00 | 0.00 | 91 | 925.6 |